• Join FlightAware (Why Join?)
  • Login
  • US Flag 
05:59AM EDT


 

Airport Tracker/Info


-or-


 

Live Flight TrackerFlight Track Log ✈ EJA727 ✈ 23-Jun-2013 ✈ KBNA - KPBI

Flight Track Log - Related Links

Times and Time Zones

All times are in EDT time to prevent confusion due to time zone crossing. See the EJA727 flight status page for this flight to view local times or setup timezone preferences in your user account.

Time Position Orientation Groundspeed Altitude Reporting Facility
EDT Latitude Longitude Course Direction KTS MPH feet Rate Location/Type
09:48AM 36.1000 -86.6833 180° South 162 186 1,300  Level Nashville TRACON
09:49AM 36.0667 -86.6833 180° South 199 229 3,000 3,240 Climbing Nashville TRACON
09:50AM 35.9747 -86.6814 179° South 250 288 7,900 3,840 Climbing Memphis Center
09:51AM 35.8986 -86.6464 160° South 279 321 12,000 3,480 Climbing Memphis Center
09:52AM 35.8256 -86.5731 141° Southeast 318 366 14,900 2,460 Climbing Memphis Center
09:53AM 35.7503 -86.4972 141° Southeast 363 418 17,000 2,400 Climbing Memphis Center
09:54AM 35.6444 -86.4458 158° South 399 459 19,800 2,520 Climbing Memphis Center
09:57AM 35.3706 -86.3844 170° South 427 491 25,600 2,280 Climbing Atlanta Center
09:58AM 35.2525 -86.3278 159° South 437 503 27,600 1,680 Climbing Atlanta Center
09:59AM 35.1267 -86.2558 155° Southeast 448 516 29,000 840 Climbing Atlanta Center
10:00AM 35.0006 -86.1889 156° South 470 541 29,300 900 Climbing Atlanta Center
10:01AM 34.8722 -86.1225 157° South 491 565 30,800 1,500 Climbing Atlanta Center
10:02AM 34.7461 -86.0586 157° South 491 565 32,300 1,500 Climbing Atlanta Center
10:03AM 34.6239 -85.9950 157° South 491 565 33,800 1,200 Climbing Atlanta Center
10:04AM 34.4997 -85.9317 157° South 486 559 34,800 600 Climbing Atlanta Center
10:05AM 34.3756 -85.8686 157° South 486 559 35,000 60 Climbing Atlanta Center
10:06AM 34.2594 -85.8108 158° South 479 551 35,000  Level Atlanta Center
10:07AM 34.1433 -85.7556 158° South 453 521 35,000  Level Atlanta Center
10:08AM 34.0294 -85.6981 157° South 447 514 35,000  Level Atlanta Center
10:09AM 33.9236 -85.6436 157° South 454 522 35,000  Level Atlanta Center
10:10AM 33.8075 -85.5864 158° South 449 517 35,000  Level Atlanta Center
10:11AM 33.6892 -85.5269 157° South 454 522 35,000  Level Atlanta Center
10:12AM 33.5731 -85.4700 158° South 454 522 35,000  Level Atlanta Center
10:13AM 33.4528 -85.4108 158° South 454 522 35,000  Level Atlanta Center
10:14AM 33.3364 -85.3517 157° South 449 517 35,000  Level Atlanta Center
10:15AM 33.2200 -85.2953 158° South 449 517 35,000  Level Atlanta Center
10:16AM 33.1039 -85.2367 157° South 449 517 35,000  Level Atlanta Center
10:17AM 32.9833 -85.1878 161° South 449 517 35,000  Level Atlanta Center
10:18AM 32.8625 -85.1517 166° South 444 511 35,000  Level Atlanta Center
10:19AM 32.7314 -85.0981 161° South 444 511 35,000  Level Atlanta Center
10:20AM 32.6067 -85.0547 164° South 450 518 35,000  Level Atlanta Center
10:22AM 32.3936 -84.9814 164° South 454 522 35,000  Level Jacksonville Center
10:23AM 32.2731 -84.9417 164° South 454 522 35,000  Level Jacksonville Center
10:24AM 32.1528 -84.9022 164° South 454 522 35,000  Level Jacksonville Center
10:25AM 32.0239 -84.8603 165° South 454 522 35,000  Level Jacksonville Center
10:26AM 31.9200 -84.8261 164° South 447 514 35,000  Level Jacksonville Center
10:27AM 31.7994 -84.7869 165° South 447 514 35,000  Level Jacksonville Center
10:28AM 31.6811 -84.7481 164° South 447 514 35,000  Level Jacksonville Center
10:29AM 31.5628 -84.7092 164° South 447 514 35,000  Level Jacksonville Center
10:30AM 31.4464 -84.6678 163° South 442 509 35,000  Level Jacksonville Center
10:31AM 31.3278 -84.6292 164° South 442 509 35,000  Level Jacksonville Center
10:32AM 31.2072 -84.5906 165° South 442 509 35,000  Level Jacksonville Center
10:33AM 31.0908 -84.5519 164° South 437 503 35,000  Level Jacksonville Center
10:34AM 30.9725 -84.5111 164° South 437 503 35,000  Level Jacksonville Center
10:35AM 30.8558 -84.4728 164° South 437 503 35,000  Level Jacksonville Center
10:36AM 30.7375 -84.4344 164° South 432 497 35,000  Level Jacksonville Center
10:37AM 30.6189 -84.3942 164° South 432 497 35,000  Level Jacksonville Center
10:38AM 30.5175 -84.3128 145° Southeast 432 497 35,000  Level Jacksonville Center
10:39AM 30.4353 -84.2008 130° Southeast 437 503 35,000  Level Jacksonville Center
10:40AM 30.3569 -84.0939 130° Southeast 437 503 35,000  Level Jacksonville Center
10:41AM 30.2744 -83.9797 130° Southeast 444 511 35,000  Level Jacksonville Center
10:42AM 30.1939 -83.8683 130° Southeast 456 525 35,000  Level Jacksonville Center
10:43AM 30.1133 -83.7569 130° Southeast 456 525 35,000 -60 Level Jacksonville Center
10:44AM 30.0325 -83.6458 130° Southeast 456 525 34,900  Descending Jacksonville Center
10:45AM 29.9350 -83.5614 143° Southeast 442 509 35,000 600 Climbing Jacksonville Center
10:46AM 29.8142 -83.4814 150° Southeast 449 517 36,200 1,440 Climbing Jacksonville Center
10:47AM 29.7058 -83.4139 152° Southeast 449 517 37,900 1,320 Climbing Jacksonville Center
10:48AM 29.5997 -83.3392 149° Southeast 449 517 38,900 540 Climbing Jacksonville Center
10:49AM 29.4894 -83.2672 150° Southeast 449 517 39,000  Climbing Jacksonville Center
10:50AM 29.3872 -83.1978 149° Southeast 437 503 39,000  Level Jacksonville Center
10:51AM 29.2872 -83.1283 149° Southeast 431 496 39,000  Level Jacksonville Center
10:52AM 29.1869 -83.0639 151° Southeast 426 490 39,000  Level Jacksonville Center
10:53AM 29.0850 -82.9947 149° Southeast 426 490 39,000  Level Jacksonville Center
10:54AM 28.9783 -82.9258 151° Southeast 426 490 39,000  Level Jacksonville Center
10:55AM 28.8719 -82.8569 150° Southeast 431 496 39,000 -600 Level Jacksonville Center
10:56AM 28.7633 -82.7836 149° Southeast 444 511 37,800 -1,200 Descending Jacksonville Center
10:57AM 28.6631 -82.7175 150° Southeast 449 517 36,600 -1,200 Descending Jacksonville Center
10:58AM 28.5503 -82.6467 151° Southeast 455 524 35,400 -480 Descending Jacksonville Center
11:00AM 28.2767 -82.4689 150° Southeast 467 537 35,000 -120 Descending Miami Center
11:01AM 28.1689 -82.3953 149° Southeast 459 528 35,000  Level Miami Center
11:02AM 28.0547 -82.3261 152° Southeast 459 528 35,000 -300 Level Miami Center
11:03AM 27.9375 -82.2783 160° South 452 520 34,500 -900 Descending Miami Center
11:04AM 27.8142 -82.2350 163° South 457 526 33,300 -1,380 Descending Miami Center
11:05AM 27.6883 -82.1892 162° South 469 540 31,800 -1,560 Descending Miami Center
11:06AM 27.5586 -82.1456 163° South 476 548 30,200 -1,740 Descending Miami Center
11:07AM 27.4206 -82.0994 163° South 476 548 28,400 -1,680 Descending Miami Center
11:08AM 27.2969 -82.0542 162° South 470 541 26,900 -1,500 Descending Miami Center
11:09AM 27.1731 -82.0158 165° South 464 534 25,400 -1,500 Descending Miami Center
11:10AM 27.0658 -81.9786 163° South 464 534 24,000 -720 Descending Miami Center
11:11AM 26.9297 -81.9331 163° South 464 534 24,000 -960 Level Miami Center
11:12AM 26.8303 -81.8472 142° Southeast 448 516 22,100 -2,160 Descending Miami Center
11:13AM 26.7458 -81.7531 135° Southeast 443 510 19,700 -1,560 Descending Miami Center
11:14AM 26.7244 -81.6450 102° East 397 457 19,000 -360 Descending Miami Center
11:15AM 26.7408 -81.5225 81° East 375 432 19,000 -900 Level Miami Center
11:16AM 26.7244 -81.3869 98° East 388 447 17,300 -1,980 Descending Miami Center
11:17AM 26.7156 -81.2658 95° East 388 447 15,100 -1,740 Descending Miami Center
11:18AM 26.7189 -81.1544 88° East 379 436 13,900 -1,080 Descending Miami Center
11:19AM 26.7428 -81.0531 75° East 369 425 13,000 -1,440 Descending Miami Center
11:20AM 26.7775 -80.9356 72° East 358 412 11,100 -1,500 Descending Miami Center
11:21AM 26.7886 -80.8358 83° East 347 399 10,000 -600 Descending Miami Center
11:22AM 26.7825 -80.7497 95° East 294 338 10,000 -1,080 Level Miami Center
11:23AM 26.7661 -80.6606 102° East 288 331 7,900 -2,100 Descending Miami Center
11:24AM 26.7494 -80.5786 103° East 281 323 5,900 -1,500 Descending Miami Center
11:25AM 26.7261 -80.5128 112° Southeast 261 300 5,000 -1,620 Descending Miami Center
11:26AM 26.6961 -80.4492 118° Southeast 227 261 2,700 -1,500 Descending Miami Center
11:27AM 26.6892 -80.3956 98° East 197 227 2,000 -360 Descending Miami Center
11:28AM 26.6908 -80.3258 88° East 192 221 2,000  Level Miami Center
11:29AM 26.6881 -80.2700 93° East 197 227 2,000  Level Miami Center
11:31AM 26.6127 -80.1540 42° Northeast  Level FlightAware Approximate
11:38AM 26.6667 -80.0833 50° Northeast  Level FlightAware Approximate
11:39AM 26.6832 -80.0956 50° Northeast  Level Estimated
11:40AM 26.6832 -80.0956 50° Northeast  Level Estimated
11:41AM 26.6832 -80.0956 50° Northeast  Level Estimated